Time;durP1;ratioP1;P1;durP2;ratioP2;P2;SDS_P1;SDS_P2;PMS_P1;PMS_P2;Temp;Humidity;BMP_temperature;BMP_pressure;BME280_temperature;BME280_humidity;BME280_pressure;Samples;Min_cycle;Max_cycle;Signal;HPM_P1;HPM_P2
2022/06/06 00:02:07;;;;;;;14.52;6.88;;;;;;;11.43;77.40;99781.59;5014069;28;20082;-82
2022/06/06 00:04:35;;;;;;;15.07;7.53;;;;;;;11.45;77.58;99782.47;5012743;28;20458;-83
2022/06/06 00:07:03;;;;;;;17.27;7.70;;;;;;;11.29;77.61;99763.28;4993606;28;20058;-81
2022/06/06 00:09:30;;;;;;;15.43;8.35;;;;;;;11.46;77.79;99816.47;5001425;28;20148;-82
2022/06/06 00:11:59;;;;;;;16.40;7.70;;;;;;;11.46;77.44;99802.50;5013210;28;20455;-82
2022/06/06 00:14:26;;;;;;;13.30;7.43;;;;;;;11.44;77.82;99801.63;5013330;28;20401;-83
2022/06/06 00:16:54;;;;;;;16.58;7.35;;;;;;;11.46;77.45;99799.88;5013420;28;20054;-84
2022/06/06 00:19:20;;;;;;;18.35;7.45;;;;;;;11.45;77.70;99806.84;5013234;28;20076;-84
2022/06/06 00:21:48;;;;;;;14.02;6.95;;;;;;;11.37;77.71;99781.59;5013321;28;20050;-85
2022/06/06 00:24:16;;;;;;;15.23;7.47;;;;;;;11.37;77.92;99785.06;4995340;28;20148;-85
2022/06/06 00:26:43;;;;;;;13.82;6.97;;;;;;;11.36;77.37;99799.03;5013779;28;20053;-84
2022/06/06 00:29:15;;;;;;;16.08;7.15;;;;;;;11.39;77.33;99811.22;5012931;28;20049;-84
2022/06/06 00:37:20;;;;;;;15.02;7.53;;;;;;;11.31;77.87;99803.38;4995704;28;20057;-82
2022/06/06 00:39:47;;;;;;;14.00;7.97;;;;;;;11.34;77.59;99805.13;5012929;28;20423;-82
2022/06/06 00:42:23;;;;;;;13.02;7.22;;;;;;;11.34;77.75;99810.38;5013853;28;20142;-82
2022/06/06 00:45:29;;;;;;;16.27;7.68;;;;;;;11.28;77.66;99792.94;5013656;28;20089;-80
2022/06/06 00:48:17;;;;;;;17.27;7.93;;;;;;;11.33;77.70;99800.78;5022998;28;20054;-80
2022/06/06 00:50:48;;;;;;;15.43;8.00;;;;;;;11.34;77.39;99800.78;5028719;28;20050;-80
2022/06/06 00:53:38;;;;;;;13.82;7.10;;;;;;;11.26;77.63;99798.16;5016127;28;20081;-81
2022/06/06 00:56:18;;;;;;;15.90;8.20;;;;;;;11.32;77.68;99796.44;4995153;28;20050;-82
2022/06/06 00:58:50;;;;;;;19.75;8.35;;;;;;;11.35;77.13;99804.25;4995703;28;20065;-81
2022/06/06 01:01:18;;;;;;;19.17;8.32;;;;;;;11.38;77.08;99817.31;5012569;28;20050;-83
2022/06/06 01:03:45;;;;;;;15.98;8.07;;;;;;;11.40;77.65;99803.38;5014177;28;20054;-81
2022/06/06 01:06:17;;;;;;;15.25;7.18;;;;;;;11.41;77.02;99809.47;5016219;28;20101;-82
2022/06/06 01:08:46;;;;;;;14.38;7.38;;;;;;;11.32;77.06;99788.59;5016319;28;20042;-82
2022/06/06 01:11:15;;;;;;;13.73;7.72;;;;;;;11.41;76.86;99799.03;5016255;28;20050;-82
2022/06/06 01:13:45;;;;;;;11.15;7.30;;;;;;;11.44;77.08;99793.78;5016461;28;20054;-81
2022/06/06 01:16:20;;;;;;;11.75;6.93;;;;;;;11.55;76.81;99805.13;5015846;28;20054;-81
2022/06/06 01:19:06;;;;;;;12.73;6.80;;;;;;;11.46;76.51;99792.03;4999145;28;20049;-81
2022/06/06 01:21:45;;;;;;;14.95;6.57;;;;;;;11.63;76.48;99807.69;5016285;28;20061;-82
2022/06/06 01:24:40;;;;;;;15.57;6.63;;;;;;;11.63;76.42;99805.94;4998948;28;20054;-82
2022/06/06 01:27:39;;;;;;;11.70;5.82;;;;;;;11.66;76.17;99813.81;5015987;28;20054;-82
2022/06/06 01:30:19;;;;;;;9.65;5.88;;;;;;;11.72;75.97;99812.03;5016371;28;20054;-82
2022/06/06 01:32:52;;;;;;;12.10;5.82;;;;;;;11.77;76.14;99798.09;5016591;28;20061;-82
2022/06/06 01:35:45;;;;;;;11.93;6.00;;;;;;;11.61;75.83;99764.97;5015567;28;20872;-82
2022/06/06 01:38:15;;;;;;;11.68;5.63;;;;;;;11.88;75.71;99806.81;5015586;28;20045;-81
2022/06/06 01:40:45;;;;;;;9.80;5.18;;;;;;;11.96;75.38;99798.06;5015269;28;20396;-82
2022/06/06 01:43:25;;;;;;;13.43;5.30;;;;;;;12.01;74.78;99804.16;5015386;28;20431;-82
2022/06/06 01:45:57;;;;;;;14.70;6.20;;;;;;;12.08;75.10;99800.63;5015841;28;20058;-82
2022/06/06 01:48:30;;;;;;;20.40;7.80;;;;;;;12.18;74.54;99804.97;5015887;28;20057;-81
2022/06/06 01:50:58;;;;;;;20.98;8.77;;;;;;;12.11;74.54;99769.22;5015957;28;20166;-82
2022/06/06 01:53:26;;;;;;;20.08;7.85;;;;;;;12.38;74.38;99801.38;4966374;28;20117;-82
2022/06/06 01:55:53;;;;;;;15.15;6.03;;;;;;;12.40;73.65;99799.63;5016070;28;20050;-82
2022/06/06 01:58:30;;;;;;;11.35;5.90;;;;;;;12.61;73.32;99796.88;5015918;28;20125;-82
2022/06/06 02:00:57;;;;;;;12.40;5.95;;;;;;;12.85;72.88;99802.84;4985237;28;20081;-83
2022/06/06 02:03:24;;;;;;;13.25;5.70;;;;;;;13.93;69.75;99769.50;4995959;28;20097;-82
2022/06/06 02:05:52;;;;;;;7.30;4.45;;;;;;;16.78;61.28;99786.53;4996304;28;20057;-83
2022/06/06 02:08:19;;;;;;;7.10;4.47;;;;;;;19.08;54.50;99801.41;4978322;28;20061;-82
2022/06/06 02:10:47;;;;;;;5.78;3.90;;;;;;;20.59;50.00;99789.03;4996778;28;20447;-82
2022/06/06 02:13:14;;;;;;;6.97;4.40;;;;;;;21.66;46.92;99779.31;4979595;28;20054;-81
2022/06/06 02:15:42;;;;;;;4.57;3.60;;;;;;;22.61;44.28;99776.81;4997938;28;20153;-82
2022/06/06 02:18:10;;;;;;;7.75;3.97;;;;;;;23.73;42.02;99777.53;4987334;28;20051;-81
2022/06/06 02:20:37;;;;;;;7.35;4.07;;;;;;;24.52;39.80;99759.03;5004118;28;20058;-82
2022/06/06 02:23:04;;;;;;;6.38;3.67;;;;;;;25.70;37.70;99780.72;5003290;28;20066;-82
2022/06/06 02:25:32;;;;;;;5.80;3.55;;;;;;;26.43;36.05;99783.34;4995681;28;20496;-83
2022/06/06 02:28:01;;;;;;;6.70;4.00;;;;;;;26.82;35.05;99772.88;4996263;28;20065;-83
2022/06/06 02:30:33;;;;;;;5.72;3.67;;;;;;;27.38;33.94;99787.03;4995327;28;20062;-84
2022/06/06 02:33:01;;;;;;;6.78;3.90;;;;;;;27.66;33.38;99780.66;4995705;28;20492;-84
2022/06/06 02:35:36;;;;;;;6.80;3.38;;;;;;;28.12;32.32;99777.47;4995268;28;20535;-82
2022/06/06 02:38:06;;;;;;;9.63;4.63;;;;;;;28.83;31.37;99771.53;4995136;28;20145;-83
2022/06/06 02:40:33;;;;;;;11.20;4.63;;;;;;;29.07;30.33;99766.13;4997259;28;20062;-83
2022/06/06 02:43:00;;;;;;;13.25;4.90;;;;;;;29.71;29.52;99776.56;5003684;28;20050;-85
2022/06/06 02:45:27;;;;;;;7.75;4.10;;;;;;;30.07;28.36;99762.00;4977582;28;20074;-84
2022/06/06 02:47:58;;;;;;;9.13;4.32;;;;;;;30.85;27.84;99780.94;4995120;28;20057;-84
2022/06/06 02:50:28;;;;;;;8.25;4.22;;;;;;;31.50;26.60;99784.56;4995020;28;20074;-84
2022/06/06 02:52:56;;;;;;;9.07;4.43;;;;;;;32.34;25.65;99781.78;4995332;28;20054;-83
2022/06/06 02:55:24;;;;;;;7.03;3.85;;;;;;;32.83;24.93;99762.00;4979673;28;20050;-82
2022/06/06 02:57:54;;;;;;;9.00;4.68;;;;;;;32.75;24.52;99769.97;4997990;28;20065;-82
2022/06/06 03:00:25;;;;;;;8.73;4.47;;;;;;;32.60;24.85;99757.84;4996537;28;20053;-84
2022/06/06 03:02:52;;;;;;;8.40;4.78;;;;;;;33.00;24.20;99765.03;4977648;28;20058;-85
2022/06/06 03:05:20;;;;;;;8.00;4.30;;;;;;;33.54;23.82;99771.72;4977499;28;20105;-88
2022/06/06 03:07:50;;;;;;;7.40;4.40;;;;;;;33.71;23.07;99769.28;4994600;28;20054;-84
2022/06/06 03:10:20;;;;;;;7.80;4.30;;;;;;;33.64;23.07;99771.72;4994212;28;20054;-84
2022/06/06 03:13:14;;;;;;;6.18;4.18;;;;;;;34.01;23.63;99777.22;4994228;28;20101;-83
2022/06/06 03:22:20;;;;;;;7.03;4.60;;;;;;;34.52;22.53;99780.41;4994377;28;20048;-82
2022/06/06 03:25:12;;;;;;;7.60;5.05;;;;;;;34.87;21.75;99787.81;4994208;28;20461;-84
2022/06/06 03:28:03;;;;;;;9.23;5.00;;;;;;;35.11;21.14;99791.78;4992657;28;20475;-84
2022/06/06 03:30:50;;;;;;;7.40;4.40;;;;;;;35.08;21.76;99802.94;4976065;28;20424;-83
2022/06/06 03:33:35;;;;;;;8.38;4.40;;;;;;;35.60;20.68;99780.50;4993771;28;20058;-82
2022/06/06 03:36:18;;;;;;;4.10;3.58;;;;;;;36.11;20.62;99792.41;4993803;28;20072;-82
2022/06/06 03:39:08;;;;;;;7.35;4.07;;;;;;;36.32;19.91;99767.59;4977758;28;20054;-83
2022/06/06 03:41:49;;;;;;;7.68;4.28;;;;;;;36.60;19.94;99787.22;4993851;28;20407;-84
2022/06/06 03:45:01;;;;;;;6.75;4.43;;;;;;;36.85;19.78;99792.78;4993291;28;20499;-84
2022/06/06 03:47:38;;;;;;;8.13;3.83;;;;;;;37.32;19.10;99791.34;4910447;28;20090;-85
2022/06/06 03:50:26;;;;;;;12.85;4.20;;;;;;;37.86;19.04;99797.13;4993973;28;20117;-83
2022/06/06 03:53:31;;;;;;;6.20;3.90;;;;;;;37.77;18.64;99801.72;4994122;28;20064;-86
2022/06/06 03:56:34;;;;;;;6.07;3.85;;;;;;;37.63;18.79;99791.53;4973291;28;20153;-84
2022/06/06 03:59:01;;;;;;;4.40;3.50;;;;;;;38.30;18.41;99791.25;4962401;28;20503;-86
2022/06/06 04:01:31;;;;;;;7.40;3.72;;;;;;;38.44;17.76;99801.44;4976653;28;20104;-87
2022/06/06 04:03:59;;;;;;;4.25;3.40;;;;;;;38.67;17.92;99809.69;4976893;28;20061;-83
2022/06/06 04:06:28;;;;;;;3.95;3.38;;;;;;;38.95;16.95;99789.25;4976134;28;20484;-84
2022/06/06 04:08:55;;;;;;;4.90;3.50;;;;;;;38.31;17.47;99795.66;4993560;28;20050;-83
2022/06/06 04:11:30;;;;;;;5.43;3.78;;;;;;;37.85;18.01;99798.16;4993518;28;20062;-86
2022/06/06 04:14:12;;;;;;;4.53;3.80;;;;;;;36.27;19.25;99800.72;4994067;28;20058;-85
2022/06/06 04:16:43;;;;;;;6.72;4.00;;;;;;;32.69;23.31;99794.84;4977289;28;20479;-83
2022/06/06 04:19:32;;;;;;;5.85;3.70;;;;;;;29.44;27.45;99804.56;4993578;28;20054;-81
2022/06/06 04:22:14;;;;;;;4.03;3.17;;;;;;;27.18;30.82;99809.78;4993846;28;20150;-82
2022/06/06 04:24:48;;;;;;;4.85;3.38;;;;;;;26.07;32.91;99803.47;4994093;28;20575;-84
2022/06/06 04:27:32;;;;;;;5.53;3.90;;;;;;;25.32;34.25;99800.78;4976811;28;20051;-86
2022/06/06 04:30:28;;;;;;;4.03;3.00;;;;;;;24.43;35.29;99781.72;4977936;28;20547;-83
2022/06/06 04:33:08;;;;;;;5.55;3.20;;;;;;;24.11;36.71;99804.84;4992592;28;20046;-80
2022/06/06 04:36:01;;;;;;;4.55;3.55;;;;;;;23.78;37.37;99811.00;4992974;28;20393;-82
2022/06/06 04:38:57;;;;;;;6.90;3.08;;;;;;;23.51;37.41;99795.47;5013235;28;20051;-81
2022/06/06 04:41:28;;;;;;;6.60;3.80;;;;;;;23.07;38.72;99813.69;5001545;28;20105;-84
2022/06/06 04:43:59;;;;;;;4.20;3.47;;;;;;;22.73;39.43;99817.09;4980895;28;20397;-83
2022/06/06 04:46:58;;;;;;;6.07;3.65;;;;;;;22.31;40.25;99815.50;4997248;28;20058;-84
2022/06/06 04:49:29;;;;;;;6.93;3.58;;;;;;;22.06;40.24;99790.81;4996418;28;20093;-84
2022/06/06 04:52:01;;;;;;;6.55;3.10;;;;;;;21.90;41.52;99824.38;4997435;28;20054;-84
2022/06/06 04:54:32;;;;;;;3.60;3.10;;;;;;;21.92;41.50;99816.31;4979727;28;20050;-84
2022/06/06 04:57:03;;;;;;;4.32;3.50;;;;;;;21.98;41.67;99811.56;4995913;28;20046;-85
2022/06/06 04:59:31;;;;;;;4.75;3.28;;;;;;;21.81;41.09;99812.34;4996922;28;20443;-84
2022/06/06 05:02:00;;;;;;;7.97;4.20;;;;;;;21.63;41.59;99821.97;4979919;28;20054;-83
2022/06/06 05:04:29;;;;;;;;;;;;;;;21.39;41.51;99831.81;4997417;28;20054;-83
2022/06/06 05:07:04;;;;;;;3.63;3.33;;;;;;;21.47;42.48;99842.16;4980364;28;19964;-89
2022/06/06 05:10:06;;;;;;;5.20;3.40;;;;;;;21.20;42.66;99841.47;4994421;28;20054;-89
2022/06/06 05:12:56;;;;;;;4.53;3.60;;;;;;;20.98;43.35;99852.09;4937796;28;20422;-82
2022/06/06 05:15:42;;;;;;;3.97;3.58;;;;;;;20.83;43.91;99856.22;4996996;28;20056;-81
2022/06/06 05:18:30;;;;;;;4.28;3.20;;;;;;;20.81;43.45;99856.25;4997142;28;20050;-82
2022/06/06 05:21:21;;;;;;;5.78;4.05;;;;;;;21.03;43.28;99852.75;4996669;28;20086;-83
2022/06/06 05:24:01;;;;;;;4.00;3.35;;;;;;;21.00;43.17;99861.72;4979262;28;20056;-84
2022/06/06 05:27:04;;;;;;;6.65;3.80;;;;;;;20.83;43.58;99864.19;4978763;28;20050;-83
2022/06/06 05:29:43;;;;;;;5.57;3.88;;;;;;;20.81;43.60;99863.38;4996173;28;20508;-84
2022/06/06 05:32:32;;;;;;;5.13;3.58;;;;;;;20.68;43.97;99857.66;4978881;28;20051;-85
2022/06/06 05:35:06;;;;;;;3.53;3.20;;;;;;;20.56;43.93;99866.91;4996778;28;20054;-81
2022/06/06 05:37:57;;;;;;;6.28;3.30;;;;;;;20.66;44.14;99865.69;4997327;28;20082;-84
2022/06/06 05:40:25;;;;;;;;;;;;;;;20.53;43.88;99863.53;4982196;28;20108;-85
2022/06/06 05:43:12;;;;;;;6.00;3.70;;;;;;;20.90;44.21;99863.00;4996711;28;19925;-83
2022/06/06 05:46:06;;;;;;;6.28;3.50;;;;;;;21.01;43.17;99855.47;4996195;28;20515;-85
2022/06/06 05:48:58;;;;;;;4.50;3.30;;;;;;;20.92;44.10;99855.84;4996400;28;20054;-86
2022/06/06 05:51:44;;;;;;;8.35;3.88;;;;;;;20.93;44.15;99854.03;4969739;28;20050;-83
2022/06/06 05:54:25;;;;;;;4.30;3.15;;;;;;;21.14;44.17;99862.94;4996269;28;20046;-82
2022/06/06 05:57:08;;;;;;;5.50;3.38;;;;;;;21.10;43.63;99867.53;4996295;28;20066;-85
2022/06/06 06:00:16;;;;;;;3.85;3.00;;;;;;;21.30;43.42;99869.38;4964062;28;20054;-83
2022/06/06 06:03:12;;;;;;;4.20;3.35;;;;;;;21.04;43.16;99823.50;4962097;28;20070;-83
2022/06/06 06:06:02;;;;;;;4.28;3.30;;;;;;;21.27;43.29;99858.88;4995275;28;20042;-82
2022/06/06 06:08:50;;;;;;;4.28;3.30;;;;;;;21.28;44.01;99860.63;4999947;28;20050;-84
2022/06/06 06:11:44;;;;;;;5.88;3.80;;;;;;;21.50;43.51;99857.09;5016905;28;20108;-83
2022/06/06 06:14:34;;;;;;;7.60;3.55;;;;;;;21.42;43.08;99825.53;5015382;28;20062;-83
2022/06/06 06:17:14;;;;;;;3.75;3.17;;;;;;;21.52;42.90;99834.84;5012934;28;20061;-81
2022/06/06 06:20:11;;;;;;;8.68;3.60;;;;;;;21.80;42.65;99861.13;5009402;28;20058;-81
2022/06/06 06:23:03;;;;;;;6.35;3.03;;;;;;;21.57;41.55;99866.53;4978390;28;20128;-84
2022/06/06 06:25:37;;;;;;;5.07;3.10;;;;;;;20.96;42.36;99828.25;4995264;28;20531;-82
2022/06/06 06:28:10;;;;;;;8.48;3.22;;;;;;;20.97;43.32;99860.97;4995391;28;20116;-81
2022/06/06 06:30:58;;;;;;;6.47;3.72;;;;;;;21.15;43.24;99870.00;4995371;28;20054;-81
2022/06/06 06:33:52;;;;;;;5.15;3.70;;;;;;;21.61;42.53;99857.50;4989161;28;20081;-81
2022/06/06 06:36:38;;;;;;;3.20;2.90;;;;;;;21.71;41.89;99860.66;5014822;28;20156;-81
2022/06/06 06:39:40;;;;;;;5.05;3.22;;;;;;;21.77;42.07;99855.94;5015119;28;20046;-80
2022/06/06 06:42:33;;;;;;;5.65;3.22;;;;;;;21.85;42.27;99856.47;4987644;28;20050;-82
2022/06/06 06:45:23;;;;;;;4.68;2.90;;;;;;;21.86;41.55;99860.00;4984979;28;20065;-82
2022/06/06 06:47:59;;;;;;;4.30;2.92;;;;;;;21.74;42.17;99858.72;5033570;28;20049;-82
2022/06/06 06:50:44;;;;;;;8.43;3.20;;;;;;;21.94;41.96;99849.91;5032408;28;20046;-83
2022/06/06 06:53:21;;;;;;;4.07;3.00;;;;;;;21.86;41.02;99846.69;5037545;28;20148;-82
2022/06/06 06:56:06;;;;;;;6.75;3.20;;;;;;;21.81;40.24;99854.88;5035138;28;20423;-83
2022/06/06 06:58:53;;;;;;;5.10;3.33;;;;;;;21.52;40.23;99847.28;5013648;28;20049;-83
2022/06/06 07:01:23;;;;;;;3.28;2.92;;;;;;;21.84;40.27;99853.88;5029251;28;20064;-82
2022/06/06 07:10:35;;;;;;;5.50;3.65;;;;;;;21.14;41.66;99828.44;5038148;28;20144;-82
2022/06/06 07:13:19;;;;;;;3.20;2.85;;;;;;;21.80;40.73;99850.47;5035887;28;20135;-84
2022/06/06 07:15:55;;;;;;;3.08;2.80;;;;;;;21.45;41.29;99825.41;5033801;28;20170;-83
2022/06/06 07:18:30;;;;;;;5.00;3.10;;;;;;;21.62;41.18;99832.69;5020588;28;20612;-83
2022/06/06 07:21:01;;;;;;;4.38;3.20;;;;;;;21.74;41.25;99856.06;5040609;28;20049;-82
2022/06/06 07:23:35;;;;;;;7.25;3.60;;;;;;;21.72;41.24;99814.53;5038614;28;20499;-81
2022/06/06 07:26:04;;;;;;;3.83;3.08;;;;;;;22.26;40.18;99832.53;5033195;28;20045;-83
2022/06/06 07:28:34;;;;;;;4.63;3.20;;;;;;;22.31;40.51;99842.13;5033772;28;20050;-84
2022/06/06 07:31:31;;;;;;;3.72;3.00;;;;;;;22.59;39.37;99841.69;5032860;28;20077;-82
2022/06/06 07:34:23;;;;;;;4.85;3.22;;;;;;;22.48;38.94;99828.91;4960584;28;20112;-85
2022/06/06 07:37:11;;;;;;;6.75;3.10;;;;;;;22.14;39.61;99842.84;5017088;28;20051;-82
2022/06/06 07:39:52;;;;;;;7.10;3.38;;;;;;;22.11;39.13;99849.13;5016127;28;20045;-82
2022/06/06 07:42:35;;;;;;;5.88;3.15;;;;;;;22.53;38.52;99840.19;5015968;28;20396;-82
2022/06/06 07:45:26;;;;;;;5.03;3.28;;;;;;;23.02;37.07;99850.34;5033612;28;20574;-83
2022/06/06 07:48:11;;;;;;;3.88;3.20;;;;;;;22.88;37.24;99846.50;5016964;28;20058;-83
2022/06/06 07:51:11;;;;;;;3.05;2.47;;;;;;;22.32;37.66;99815.41;5033229;28;20057;-83
2022/06/06 07:53:54;;;;;;;4.28;3.75;;;;;;;22.31;37.83;99837.66;5016249;28;20053;-83
2022/06/06 07:56:27;;;;;;;3.25;2.95;;;;;;;22.43;38.14;99844.19;5001693;28;20080;-88
2022/06/06 07:59:14;;;;;;;5.25;3.22;;;;;;;22.70;37.75;99842.06;5017390;28;20049;-82
2022/06/06 08:02:00;;;;;;;3.22;2.67;;;;;;;23.05;37.16;99844.88;5032285;28;20057;-82
2022/06/06 08:04:54;;;;;;;4.70;2.63;;;;;;;23.13;36.78;99844.50;5033065;28;20572;-83
2022/06/06 08:07:26;;;;;;;4.00;3.00;;;;;;;22.87;37.42;99839.47;5032946;28;20111;-82
2022/06/06 08:10:09;;;;;;;;;;;;;;;22.91;38.04;99845.50;5016468;28;20049;-83
2022/06/06 08:13:24;;;;;;;3.22;2.60;;;;;;;23.63;36.88;99833.09;5032854;28;19964;-83
2022/06/06 08:16:20;;;;;;;3.30;2.85;;;;;;;23.74;35.93;99828.09;5034264;28;20454;-83
2022/06/06 08:19:17;;;;;;;3.58;3.10;;;;;;;23.18;37.18;99831.81;5035358;28;20088;-83
2022/06/06 08:21:51;;;;;;;8.60;3.08;;;;;;;23.14;37.01;99815.09;5037764;28;20070;-82
2022/06/06 08:24:32;;;;;;;6.45;3.20;;;;;;;23.35;36.47;99825.66;5049620;28;20045;-82
2022/06/06 08:27:16;;;;;;;6.43;3.08;;;;;;;23.69;36.16;99828.31;5049309;28;20061;-82
2022/06/06 08:29:45;;;;;;;3.03;2.70;;;;;;;23.85;35.86;99822.22;5018137;28;20120;-82
2022/06/06 08:32:13;;;;;;;3.77;3.00;;;;;;;23.86;35.51;99822.16;5035238;28;20045;-84
2022/06/06 08:34:42;;;;;;;4.43;3.10;;;;;;;23.63;35.40;99803.78;5034715;28;20316;-81
2022/06/06 08:37:24;;;;;;;4.07;2.95;;;;;;;23.46;36.21;99816.16;5034554;28;20153;-83
2022/06/06 08:39:54;;;;;;;5.85;3.00;;;;;;;23.45;36.03;99811.78;5032903;28;20056;-82
2022/06/06 08:42:30;;;;;;;;;;;;;;;23.87;35.91;99820.34;5031804;28;20065;-81
2022/06/06 08:45:24;;;;;;;2.95;2.75;;;;;;;24.22;34.23;99807.81;5035009;28;20040;-82
2022/06/06 08:47:55;;;;;;;3.88;2.50;;;;;;;24.02;33.91;99810.66;5016802;28;20058;-81
2022/06/06 08:50:50;;;;;;;4.55;2.97;;;;;;;24.16;34.10;99816.16;5033485;28;20454;-82
2022/06/06 08:53:46;;;;;;;3.35;2.75;;;;;;;23.96;34.05;99811.84;5015077;28;20103;-83
2022/06/06 08:56:38;;;;;;;2.60;2.33;;;;;;;23.90;34.11;99801.53;5018379;28;20049;-81
2022/06/06 08:59:32;;;;;;;4.13;2.85;;;;;;;23.81;34.47;99804.66;5034774;28;20057;-84
2022/06/06 09:02:18;;;;;;;3.78;3.00;;;;;;;23.20;34.99;99805.97;5034355;28;20053;-81
2022/06/06 09:05:04;;;;;;;3.40;2.97;;;;;;;22.92;35.75;99801.94;5034433;28;20077;-84
2022/06/06 09:07:52;;;;;;;5.55;2.90;;;;;;;23.08;35.53;99812.72;5016097;28;20498;-82
2022/06/06 09:10:52;;;;;;;4.13;3.00;;;;;;;23.31;35.39;99787.63;5017000;28;20172;-82
2022/06/06 09:13:52;;;;;;;3.00;2.80;;;;;;;23.57;35.02;99790.75;5035415;28;20049;-83
2022/06/06 09:16:51;;;;;;;3.00;2.80;;;;;;;23.46;34.08;99802.84;5035207;28;20052;-84
2022/06/06 09:19:43;;;;;;;5.47;3.28;;;;;;;22.80;35.21;99814.06;5033963;28;20126;-81
2022/06/06 09:22:28;;;;;;;5.60;2.83;;;;;;;22.39;36.17;99794.69;5035031;28;20092;-85
2022/06/06 09:25:09;;;;;;;5.40;2.83;;;;;;;22.55;36.32;99793.06;5034804;28;20056;-82
2022/06/06 09:28:02;;;;;;;4.22;3.00;;;;;;;23.01;35.61;99800.66;5020214;28;20442;-85
2022/06/06 09:30:33;;;;;;;8.68;4.22;;;;;;;23.17;35.96;99806.97;5038262;28;20069;-82
2022/06/06 09:33:35;;;;;;;4.35;2.80;;;;;;;23.20;34.62;99806.81;5037741;28;20049;-82
2022/06/06 09:36:23;;;;;;;5.18;3.08;;;;;;;22.84;35.53;99802.34;5037829;28;20064;-82
2022/06/06 09:39:05;;;;;;;2.83;2.50;;;;;;;22.22;35.54;99807.00;5037875;28;20050;-83
2022/06/06 09:41:40;;;;;;;4.80;3.13;;;;;;;22.23;35.84;99794.56;5036815;28;20061;-82
2022/06/06 09:44:13;;;;;;;3.33;2.33;;;;;;;22.59;35.71;99796.44;5037715;28;20053;-82
2022/06/06 09:46:44;;;;;;;4.25;2.60;;;;;;;22.43;36.31;99798.94;5035808;28;20057;-82
2022/06/06 09:49:56;;;;;;;2.78;2.50;;;;;;;22.08;36.66;99794.28;5030528;28;20084;-80
2022/06/06 09:52:51;;;;;;;5.10;2.90;;;;;;;22.27;37.28;99798.81;5034437;28;20053;-82
2022/06/06 09:59:02;;;;;;;3.70;2.60;;;;;;;23.00;35.57;99812.25;5036952;28;20050;-90
2022/06/06 10:02:00;;;;;;;5.72;3.30;;;;;;;22.94;35.56;99805.41;5036737;28;20121;-85
2022/06/06 10:04:52;;;;;;;9.10;3.40;;;;;;;23.15;35.02;99800.84;5019866;28;20061;-80
2022/06/06 10:07:27;;;;;;;3.85;2.90;;;;;;;23.64;34.08;99805.50;5021672;28;20104;-84
2022/06/06 10:10:00;;;;;;;5.75;2.85;;;;;;;23.74;33.67;99803.22;5036763;28;20053;-84
2022/06/06 10:12:45;;;;;;;2.35;2.20;;;;;;;23.61;33.58;99797.66;5019422;28;20531;-84
2022/06/06 10:15:26;;;;;;;3.28;2.25;;;;;;;23.46;33.98;99802.84;5040914;28;20049;-81
2022/06/06 10:18:08;;;;;;;4.88;3.38;;;;;;;23.41;34.17;99796.88;5037468;28;20053;-83
2022/06/06 10:21:00;;;;;;;3.05;2.80;;;;;;;23.52;34.34;99799.00;5020309;28;20234;-86
2022/06/06 10:23:48;;;;;;;7.37;3.70;;;;;;;23.99;33.70;99810.84;5023999;28;20526;-85
2022/06/06 10:26:54;;;;;;;4.38;3.05;;;;;;;23.58;33.52;99789.84;5039373;28;20056;-83
2022/06/06 10:30:10;;;;;;;4.63;2.85;;;;;;;22.89;34.28;99778.16;5038178;28;20053;-84
2022/06/06 10:33:02;;;;;;;4.50;2.80;;;;;;;22.54;35.41;99778.00;5038175;28;20495;-81
2022/06/06 10:35:44;;;;;;;3.30;2.80;;;;;;;22.49;36.08;99804.00;5026835;28;20050;-84
2022/06/06 10:38:32;;;;;;;2.50;2.30;;;;;;;22.22;36.24;99804.34;4982471;28;20049;-86
2022/06/06 10:41:52;;;;;;;4.10;2.90;;;;;;;22.03;36.33;99796.28;4998837;28;20058;-85
2022/06/06 10:45:21;;;;;;;7.30;3.47;;;;;;;22.13;36.64;99798.53;4998077;28;20053;-85
2022/06/06 10:48:27;;;;;;;3.35;2.67;;;;;;;22.37;36.28;99789.47;4964370;28;20085;-83
2022/06/06 10:54:21;;;;;;;8.55;2.90;;;;;;;22.30;36.99;99788.00;4996886;28;20036;-84
2022/06/06 10:57:31;;;;;;;11.55;2.60;;;;;;;22.09;37.24;99785.38;4997094;28;20053;-84
2022/06/06 11:00:57;;;;;;;6.20;2.63;;;;;;;22.61;36.98;99789.25;4982035;28;20156;-88
2022/06/06 11:04:00;;;;;;;5.88;2.97;;;;;;;23.01;36.66;99785.53;4997710;28;20108;-82
2022/06/06 11:07:09;;;;;;;3.35;2.70;;;;;;;23.21;35.95;99775.69;4996603;28;20507;-82
2022/06/06 11:09:41;;;;;;;6.88;2.50;;;;;;;23.48;35.59;99768.09;5013652;28;20061;-84
2022/06/06 11:12:19;;;;;;;6.53;2.65;;;;;;;23.96;34.82;99765.66;4997080;28;20514;-82
2022/06/06 11:14:48;;;;;;;2.97;2.45;;;;;;;23.69;34.53;99763.47;5014077;28;20050;-82
2022/06/06 11:17:29;;;;;;;2.83;2.60;;;;;;;23.38;35.42;99764.19;5013024;28;20050;-82
2022/06/06 11:20:13;;;;;;;4.57;3.78;;;;;;;23.16;36.07;99762.59;5014175;28;20137;-83
2022/06/06 11:22:54;;;;;;;5.13;3.10;;;;;;;22.82;36.00;99734.09;5013957;28;20152;-83
2022/06/06 11:25:23;;;;;;;4.43;3.13;;;;;;;22.80;36.26;99771.47;4996857;28;20496;-81
2022/06/06 11:28:11;;;;;;;5.35;3.00;;;;;;;22.66;36.52;99779.25;4995710;28;20195;-84
2022/06/06 11:31:01;;;;;;;2.53;2.33;;;;;;;22.51;36.40;99774.66;5013801;28;20061;-82
2022/06/06 11:34:06;;;;;;;2.50;2.30;;;;;;;22.60;36.83;99772.41;5013662;28;20053;-83
2022/06/06 11:37:15;;;;;;;4.82;2.83;;;;;;;23.00;35.86;99733.22;5013548;28;20502;-81
2022/06/06 11:39:47;;;;;;;;;;;;;;;23.38;35.53;99759.75;5014509;28;20050;-84
2022/06/06 11:42:26;;;;;;;4.10;2.67;;;;;;;23.67;34.64;99766.22;5013537;28;20302;-83
2022/06/06 11:45:24;;;;;;;3.08;2.47;;;;;;;23.86;34.83;99750.13;5016394;28;20069;-82
2022/06/06 11:48:15;;;;;;;4.28;2.55;;;;;;;23.66;34.58;99752.94;5032961;28;20053;-83
2022/06/06 11:50:59;;;;;;;3.30;2.78;;;;;;;23.41;34.50;99751.56;5033707;28;20055;-81
2022/06/06 11:53:50;;;;;;;3.58;2.70;;;;;;;23.37;34.45;99758.00;5033740;28;20080;-81
2022/06/06 11:56:26;;;;;;;4.47;2.75;;;;;;;23.21;35.21;99752.59;5033997;28;20057;-84
2022/06/06 11:59:14;;;;;;;6.30;2.95;;;;;;;22.96;35.12;99755.59;5033986;28;20522;-83
2022/06/06 12:02:16;;;;;;;4.65;2.92;;;;;;;22.76;35.71;99755.69;5016123;28;20147;-81
2022/06/06 12:05:10;;;;;;;5.32;2.90;;;;;;;22.55;35.98;99718.53;5017290;28;20054;-84
2022/06/06 12:08:02;;;;;;;4.53;2.75;;;;;;;22.59;36.42;99744.06;5054062;28;20057;-84
2022/06/06 12:10:47;;;;;;;5.82;3.25;;;;;;;22.44;36.51;99739.50;5054729;28;20052;-80
2022/06/06 12:13:33;;;;;;;6.55;2.53;;;;;;;22.62;36.72;99745.72;5055462;28;20053;-81
2022/06/06 12:16:11;;;;;;;3.10;2.45;;;;;;;22.74;35.94;99745.13;5016763;28;20087;-81
2022/06/06 12:19:29;;;;;;;3.05;2.40;;;;;;;22.77;36.27;99741.44;5017871;28;20075;-81
2022/06/06 12:22:07;;;;;;;5.55;2.97;;;;;;;22.94;36.18;99741.47;5019957;28;20060;-81
2022/06/06 12:24:58;;;;;;;4.43;3.10;;;;;;;23.06;35.89;99730.25;5039080;28;20054;-79
2022/06/06 12:27:48;;;;;;;5.93;2.88;;;;;;;23.22;35.67;99735.66;5033887;28;20503;-82
2022/06/06 12:31:14;;;;;;;3.47;2.67;;;;;;;22.94;35.72;99725.50;5033228;28;20054;-82
2022/06/06 12:33:52;;;;;;;3.63;2.45;;;;;;;22.91;35.68;99744.31;5016227;28;20136;-81
2022/06/06 12:36:43;;;;;;;6.57;2.80;;;;;;;22.87;35.10;99722.28;5033185;28;20076;-82
2022/06/06 12:40:04;;;;;;;4.82;2.90;;;;;;;23.27;34.93;99722.09;5032730;28;20057;-82
2022/06/06 12:42:48;;;;;;;5.57;2.65;;;;;;;23.36;34.48;99715.44;4940042;28;20101;-83
2022/06/06 12:45:39;;;;;;;5.00;3.95;;;;;;;23.55;34.35;99726.00;5023914;28;20072;-82
2022/06/06 12:48:38;;;;;;;3.72;2.67;;;;;;;23.75;33.01;99720.50;5014599;28;20085;-83
2022/06/06 12:51:46;;;;;;;3.42;2.33;;;;;;;23.72;32.69;99723.31;5016103;28;20171;-82
2022/06/06 12:58:16;;;;;;;5.57;2.65;;;;;;;23.94;32.30;99716.84;5012759;28;20061;-80
2022/06/06 13:03:41;;;;;;;2.10;1.90;;;;;;;24.36;31.74;99712.78;5016014;28;20050;-83
2022/06/06 13:06:34;;;;;;;4.53;2.50;;;;;;;24.47;31.50;99716.53;5016792;28;20132;-85
2022/06/06 13:09:03;;;;;;;5.13;2.30;;;;;;;24.48;31.48;99712.09;4999258;28;20164;-85
2022/06/06 13:11:52;;;;;;;5.80;3.90;;;;;;;24.11;31.72;99679.44;5000047;28;20570;-83
2022/06/06 13:15:05;;;;;;;8.35;3.55;;;;;;;24.08;32.10;99720.50;5001623;28;20116;-83
2022/06/06 13:18:10;;;;;;;5.38;3.05;;;;;;;24.04;32.81;99710.06;4920197;29;20204;-83
2022/06/06 13:20:49;;;;;;;4.63;3.10;;;;;;;23.76;33.36;99686.72;5008824;28;20529;-83